createdAt,value
2022-10-18T00:00:55.685Z,25.55
2022-10-18T00:03:23.045Z,27.23
2022-10-18T00:05:50.699Z,25.58
2022-10-18T00:08:18.785Z,24.70
2022-10-18T00:10:46.520Z,27.58
2022-10-18T00:13:14.036Z,25.73
2022-10-18T00:15:48.178Z,24.90
2022-10-18T00:18:15.274Z,24.23
2022-10-18T00:20:42.405Z,25.13
2022-10-18T00:23:09.634Z,26.52
2022-10-18T00:25:36.836Z,26.25
2022-10-18T00:28:03.902Z,25.35
2022-10-18T00:30:30.947Z,25.52
2022-10-18T00:32:57.962Z,26.23
2022-10-18T00:35:25.382Z,25.10
2022-10-18T00:37:52.369Z,23.63
2022-10-18T00:40:19.748Z,24.13
2022-10-18T00:42:46.974Z,24.73
2022-10-18T00:45:23.945Z,25.80
2022-10-18T00:47:56.934Z,24.48
2022-10-18T00:50:25.337Z,25.08
2022-10-18T00:52:58.533Z,25.33
2022-10-18T00:55:27.895Z,25.25
2022-10-18T00:57:55.966Z,26.60
2022-10-18T01:00:23.648Z,25.00
2022-10-18T01:02:50.997Z,23.23
2022-10-18T01:05:20.130Z,25.40
2022-10-18T01:07:53.109Z,25.05
2022-10-18T01:10:33.351Z,23.50
2022-10-18T01:13:25.776Z,23.48
2022-10-18T01:16:08.592Z,23.83
2022-10-18T01:18:53.753Z,22.70
2022-10-18T01:21:59.109Z,22.38
2022-10-18T01:24:37.597Z,20.95
2022-10-18T01:27:16.331Z,20.48
2022-10-18T01:30:15.449Z,23.13
2022-10-18T01:32:49.785Z,23.33
2022-10-18T01:35:22.259Z,23.02
2022-10-18T01:37:50.940Z,23.80
2022-10-18T01:40:22.366Z,22.60
2022-10-18T01:42:50.355Z,21.45
2022-10-18T01:45:19.028Z,21.60
2022-10-18T01:47:48.455Z,23.13
2022-10-18T01:50:15.720Z,22.70
2022-10-18T01:52:52.009Z,24.90
2022-10-18T01:55:30.759Z,24.30
2022-10-18T01:58:10.725Z,24.58
2022-10-18T02:00:42.771Z,22.73
2022-10-18T02:03:21.088Z,22.63
2022-10-18T02:05:53.869Z,22.30
2022-10-18T02:08:55.098Z,21.40
2022-10-18T02:11:22.776Z,21.48
2022-10-18T02:13:55.009Z,21.40
2022-10-18T02:16:43.939Z,20.83
2022-10-18T02:19:20.421Z,19.75
2022-10-18T02:21:49.010Z,19.00
2022-10-18T02:24:18.425Z,19.17
2022-10-18T02:26:45.661Z,19.52
2022-10-18T02:29:12.975Z,20.20
2022-10-18T02:31:52.919Z,18.52
2022-10-18T02:34:31.447Z,20.15
2022-10-18T02:37:00.741Z,20.67
2022-10-18T02:39:37.113Z,23.23
2022-10-18T02:42:07.066Z,23.95
2022-10-18T02:44:38.454Z,23.67
2022-10-18T02:47:06.852Z,25.23
2022-10-18T02:49:33.866Z,24.63
2022-10-18T02:52:00.996Z,26.13
2022-10-18T02:54:28.082Z,25.60
2022-10-18T02:56:54.984Z,26.35
2022-10-18T02:59:22.006Z,27.90
2022-10-18T03:01:48.982Z,28.60
2022-10-18T03:04:16.042Z,26.30
2022-10-18T03:06:43.118Z,27.75
2022-10-18T03:09:10.325Z,27.45
2022-10-18T03:11:37.252Z,27.33
2022-10-18T03:14:04.267Z,31.75
2022-10-18T03:16:31.786Z,33.03
2022-10-18T03:18:58.697Z,31.08
2022-10-18T03:21:25.772Z,29.02
2022-10-18T03:23:52.819Z,27.42
2022-10-18T03:26:21.570Z,25.70
2022-10-18T03:28:48.629Z,25.08
2022-10-18T03:31:15.867Z,23.92
2022-10-18T03:33:43.022Z,22.80
2022-10-18T03:36:10.368Z,23.55
2022-10-18T03:38:37.303Z,22.27
2022-10-18T03:41:04.484Z,21.20
2022-10-18T03:43:31.443Z,21.65
2022-10-18T03:45:58.669Z,20.73
2022-10-18T03:48:25.955Z,22.13
2022-10-18T03:50:53.083Z,22.33
2022-10-18T03:53:20.138Z,23.67
2022-10-18T03:55:52.675Z,22.70
2022-10-18T03:58:19.981Z,23.48
2022-10-18T04:00:51.203Z,23.25
2022-10-18T04:03:19.175Z,20.52
2022-10-18T04:05:47.222Z,22.73
2022-10-18T04:08:15.285Z,19.48
2022-10-18T04:10:42.755Z,18.40
2022-10-18T04:13:09.750Z,17.58
2022-10-18T04:15:36.821Z,17.15
2022-10-18T04:18:03.985Z,17.00
2022-10-18T04:20:31.076Z,17.55
2022-10-18T04:22:58.423Z,17.73
2022-10-18T04:25:25.475Z,22.45
2022-10-18T04:27:52.884Z,23.13
2022-10-18T04:30:19.872Z,23.08
2022-10-18T04:32:46.844Z,22.75
2022-10-18T04:35:13.885Z,21.20
2022-10-18T04:37:41.020Z,22.77
2022-10-18T04:40:08.760Z,23.08
2022-10-18T04:42:35.792Z,23.45
2022-10-18T04:45:02.779Z,22.83
2022-10-18T04:47:29.885Z,22.50
2022-10-18T04:49:57.138Z,23.17
2022-10-18T04:52:24.083Z,23.35
2022-10-18T04:54:50.992Z,24.58
2022-10-18T04:57:17.992Z,22.92
2022-10-18T04:59:44.868Z,23.65
2022-10-18T05:02:12.104Z,23.42
2022-10-18T05:04:39.048Z,23.70
2022-10-18T05:07:06.811Z,23.70
2022-10-18T05:09:34.021Z,24.35
2022-10-18T05:12:01.114Z,22.38
2022-10-18T05:14:28.017Z,22.88
2022-10-18T05:16:55.004Z,22.77
2022-10-18T05:19:23.155Z,22.30
2022-10-18T05:21:50.488Z,24.98
2022-10-18T05:24:17.477Z,26.52
2022-10-18T05:26:44.418Z,25.80
2022-10-18T05:29:11.418Z,26.83
2022-10-18T05:31:38.761Z,27.08
2022-10-18T05:34:05.676Z,25.92
2022-10-18T05:36:32.693Z,24.67
2022-10-18T05:39:04.010Z,24.90
2022-10-18T05:41:32.050Z,24.95
2022-10-18T05:43:59.240Z,24.17
2022-10-18T05:46:26.116Z,24.08
2022-10-18T05:48:53.071Z,23.80
2022-10-18T05:51:20.094Z,24.20
2022-10-18T05:53:47.245Z,23.67
2022-10-18T05:56:14.505Z,22.40
2022-10-18T05:58:42.583Z,22.77
2022-10-18T06:01:10.434Z,23.10
2022-10-18T06:03:37.411Z,21.65
2022-10-18T06:06:07.782Z,22.33
2022-10-18T06:08:35.223Z,20.77
2022-10-18T06:11:10.812Z,21.40
2022-10-18T06:13:45.598Z,19.17
2022-10-18T06:16:15.099Z,19.70
2022-10-18T06:18:43.089Z,19.98
2022-10-18T06:21:10.148Z,17.70
2022-10-18T06:23:37.103Z,16.83
2022-10-18T06:26:07.231Z,16.42
2022-10-18T06:28:37.111Z,16.40
2022-10-18T06:31:05.596Z,15.90
2022-10-18T06:33:34.142Z,16.02
2022-10-18T06:36:11.079Z,16.02
2022-10-18T06:38:38.403Z,17.55
2022-10-18T06:41:06.983Z,17.63
2022-10-18T06:43:33.986Z,17.42
2022-10-18T06:46:06.915Z,17.65
2022-10-18T06:48:38.582Z,17.13
2022-10-18T06:51:07.541Z,16.33
2022-10-18T06:53:44.051Z,16.52
2022-10-18T06:56:15.773Z,16.52
2022-10-18T06:58:43.101Z,17.10
2022-10-18T07:01:16.233Z,16.30
2022-10-18T07:03:44.340Z,15.60
2022-10-18T07:06:13.519Z,15.65
2022-10-18T07:08:41.440Z,16.95
2022-10-18T07:11:14.071Z,16.33
2022-10-18T07:13:41.124Z,15.98
2022-10-18T07:16:14.089Z,17.30
2022-10-18T07:18:48.458Z,16.13
2022-10-18T07:21:20.488Z,16.10
2022-10-18T07:23:48.566Z,17.00
2022-10-18T07:26:22.221Z,16.15
2022-10-18T07:29:01.637Z,16.40
2022-10-18T07:31:30.271Z,15.52
2022-10-18T07:33:57.648Z,16.13
2022-10-18T07:36:25.742Z,15.68
2022-10-18T07:38:53.236Z,15.50
2022-10-18T07:41:20.416Z,14.50
2022-10-18T07:43:52.662Z,15.05
2022-10-18T07:46:21.717Z,14.32
2022-10-18T07:48:49.246Z,15.13
2022-10-18T07:51:16.990Z,14.77
2022-10-18T07:53:44.215Z,14.40
2022-10-18T07:56:16.981Z,15.70
2022-10-18T07:58:51.258Z,15.48
2022-10-18T08:01:19.304Z,15.88
2022-10-18T08:03:46.534Z,15.20
2022-10-18T08:06:16.413Z,15.10
2022-10-18T08:08:43.519Z,14.35
2022-10-18T08:11:16.259Z,15.07
2022-10-18T08:13:43.920Z,14.02
2022-10-18T08:16:13.995Z,14.77
2022-10-18T08:18:41.454Z,14.70
2022-10-18T08:21:10.909Z,13.52
2022-10-18T08:23:39.008Z,13.90
2022-10-18T08:26:08.972Z,13.55
2022-10-18T08:28:37.260Z,13.75
2022-10-18T08:31:10.968Z,12.57
2022-10-18T08:33:39.755Z,12.85
2022-10-18T08:36:08.977Z,12.05
2022-10-18T08:38:37.511Z,12.07
2022-10-18T08:41:36.406Z,11.38
2022-10-18T08:44:25.931Z,11.35
2022-10-18T08:46:59.110Z,11.52
2022-10-18T08:49:32.689Z,10.95
2022-10-18T08:52:00.154Z,11.57
2022-10-18T08:54:51.663Z,10.63
2022-10-18T08:57:20.071Z,11.25
2022-10-18T08:59:47.100Z,11.50
2022-10-18T09:02:23.209Z,12.02
2022-10-18T09:05:20.523Z,11.02
2022-10-18T09:07:56.562Z,11.13
2022-10-18T09:10:35.614Z,10.57
2022-10-18T09:13:10.415Z,10.07
2022-10-18T09:16:02.082Z,10.05
2022-10-18T09:19:02.679Z,10.70
2022-10-18T09:21:32.452Z,12.18
2022-10-18T09:24:13.806Z,10.57
2022-10-18T09:26:48.657Z,10.07
2022-10-18T09:29:30.107Z,10.27
2022-10-18T09:32:28.286Z,9.95
2022-10-18T09:35:16.857Z,9.45
2022-10-18T09:37:44.786Z,9.98
2022-10-18T09:40:21.592Z,10.00
2022-10-18T09:42:54.658Z,9.75
2022-10-18T09:45:29.307Z,9.27
2022-10-18T09:48:17.589Z,9.25
2022-10-18T09:51:05.532Z,8.45
2022-10-18T09:53:40.710Z,8.13
2022-10-18T09:56:15.355Z,7.93
2022-10-18T09:58:49.241Z,7.18
2022-10-18T10:01:21.224Z,7.47
2022-10-18T10:03:48.348Z,7.28
2022-10-18T10:06:15.284Z,6.13
2022-10-18T10:08:45.038Z,6.38
2022-10-18T10:11:29.891Z,6.30
2022-10-18T10:14:10.698Z,6.25
2022-10-18T10:17:02.461Z,5.88
2022-10-18T10:20:12.949Z,5.43
2022-10-18T10:22:41.906Z,6.18
2022-10-18T10:25:21.279Z,6.07
2022-10-18T10:27:48.299Z,6.22
2022-10-18T10:30:28.346Z,6.40
2022-10-18T10:32:56.575Z,6.47
2022-10-18T10:35:35.508Z,7.60
2022-10-18T10:38:23.696Z,8.25
2022-10-18T10:40:51.207Z,8.60
2022-10-18T10:43:38.654Z,8.23
2022-10-18T10:46:15.136Z,7.35
2022-10-18T10:49:03.302Z,7.18
2022-10-18T10:51:40.322Z,7.47
2022-10-18T10:54:20.522Z,7.68
2022-10-18T10:57:11.155Z,7.65
2022-10-18T10:59:47.119Z,7.55
2022-10-18T11:02:14.185Z,8.15
2022-10-18T11:04:42.424Z,9.07
2022-10-18T11:07:09.435Z,9.00
2022-10-18T11:09:58.563Z,8.07
2022-10-18T11:12:46.601Z,8.82
2022-10-18T11:15:30.120Z,9.02
2022-10-18T11:18:21.043Z,8.40
2022-10-18T11:21:11.537Z,8.25
2022-10-18T11:23:41.254Z,8.07
2022-10-18T11:26:11.339Z,8.35
2022-10-18T11:28:57.408Z,7.40
2022-10-18T11:31:33.000Z,6.90
2022-10-18T11:34:30.632Z,7.03
2022-10-18T11:37:36.143Z,7.30
2022-10-18T11:40:43.132Z,7.47
2022-10-18T11:44:00.512Z,8.15
2022-10-18T11:47:16.043Z,7.53
2022-10-18T11:50:03.716Z,7.80
2022-10-18T11:52:59.808Z,7.90
2022-10-18T11:55:30.288Z,7.70
2022-10-18T11:58:05.826Z,7.95
2022-10-18T12:01:12.096Z,8.80
2022-10-18T12:04:02.165Z,8.63
2022-10-18T12:06:35.033Z,9.23
2022-10-18T12:09:22.222Z,8.40
2022-10-18T12:12:01.873Z,9.20
2022-10-18T12:14:57.796Z,9.38
2022-10-18T12:17:49.854Z,9.30
2022-10-18T12:20:30.944Z,9.00
2022-10-18T12:23:29.073Z,8.27
2022-10-18T12:26:02.209Z,8.30
2022-10-18T12:28:41.190Z,7.95
2022-10-18T12:31:35.182Z,8.18
2022-10-18T12:34:18.188Z,7.70
2022-10-18T12:40:09.895Z,7.00
2022-10-18T12:42:47.376Z,7.43
2022-10-18T12:45:23.475Z,7.45
2022-10-18T12:47:51.127Z,7.60
2022-10-18T12:50:40.555Z,7.90
2022-10-18T12:53:26.673Z,7.38
2022-10-18T12:55:54.721Z,7.18
2022-10-18T12:58:30.630Z,6.95
2022-10-18T13:01:02.247Z,7.10
2022-10-18T13:03:42.325Z,7.30
2022-10-18T13:06:09.370Z,7.00
2022-10-18T13:08:42.405Z,6.60
2022-10-18T13:11:11.463Z,6.90
2022-10-18T13:14:02.610Z,7.18
2022-10-18T13:16:49.134Z,7.13
2022-10-18T13:19:25.284Z,6.35
2022-10-18T13:22:21.493Z,7.32
2022-10-18T13:25:21.451Z,7.45
2022-10-18T13:27:51.165Z,6.70
2022-10-18T13:30:30.017Z,6.43
2022-10-18T13:32:57.474Z,7.15
2022-10-18T13:35:51.613Z,7.03
2022-10-18T13:38:38.884Z,6.75
2022-10-18T13:41:11.494Z,6.72
2022-10-18T13:43:54.093Z,7.05
2022-10-18T13:46:22.717Z,6.60
2022-10-18T13:48:58.291Z,7.28
2022-10-18T13:51:34.676Z,6.57
2022-10-18T13:54:15.212Z,7.03
2022-10-18T13:57:19.623Z,7.15
2022-10-18T14:00:15.075Z,6.97
2022-10-18T14:03:31.745Z,7.65
2022-10-18T14:06:25.291Z,7.03
2022-10-18T14:09:25.548Z,7.60
2022-10-18T14:12:23.332Z,7.50
2022-10-18T14:15:16.922Z,7.68
2022-10-18T14:17:51.651Z,7.50
2022-10-18T14:20:49.105Z,6.85
2022-10-18T14:23:27.909Z,7.10
2022-10-18T14:26:15.161Z,8.35
2022-10-18T14:28:59.218Z,7.63
2022-10-18T14:31:28.273Z,8.00
2022-10-18T14:33:58.644Z,7.38
2022-10-18T14:36:41.169Z,7.80
2022-10-18T14:39:19.821Z,7.85
2022-10-18T14:41:55.099Z,8.43
2022-10-18T14:44:30.234Z,8.23
2022-10-18T14:47:16.426Z,7.93
2022-10-18T14:49:47.183Z,7.72
2022-10-18T14:52:17.716Z,7.90
2022-10-18T14:54:45.426Z,7.65
2022-10-18T14:57:33.967Z,7.53
2022-10-18T15:00:05.740Z,7.00
2022-10-18T15:02:38.620Z,7.97
2022-10-18T15:05:24.989Z,7.53
2022-10-18T15:07:53.563Z,7.88
2022-10-18T15:10:38.573Z,7.70
2022-10-18T15:13:10.172Z,7.57
2022-10-18T15:15:38.450Z,7.28
2022-10-18T15:18:06.625Z,8.82
2022-10-18T15:20:39.537Z,8.48
2022-10-18T15:23:23.348Z,8.18
2022-10-18T15:25:52.927Z,8.00
2022-10-18T15:28:32.706Z,8.02
2022-10-18T15:31:02.274Z,7.47
2022-10-18T15:33:34.613Z,8.77
2022-10-18T15:36:12.649Z,8.70
2022-10-18T15:38:39.803Z,8.57
2022-10-18T15:41:54.321Z,8.40
2022-10-18T15:44:51.053Z,8.20
2022-10-18T15:47:21.775Z,7.78
2022-10-18T15:49:52.287Z,7.57
2022-10-18T15:52:38.898Z,8.38
2022-10-18T15:55:31.005Z,8.38
2022-10-18T15:58:25.819Z,9.35
2022-10-18T16:00:57.657Z,8.70
2022-10-18T16:03:25.630Z,9.20
2022-10-18T16:06:03.663Z,8.43
2022-10-18T16:08:32.212Z,9.40
2022-10-18T16:11:01.188Z,10.07
2022-10-18T16:13:28.809Z,10.98
2022-10-18T16:15:57.205Z,11.48
2022-10-18T16:18:26.975Z,12.20
2022-10-18T16:20:56.840Z,12.57
2022-10-18T16:23:28.336Z,13.60
2022-10-18T16:25:57.336Z,13.38
2022-10-18T16:28:26.761Z,14.95
2022-10-18T16:31:00.848Z,15.93
2022-10-18T16:33:27.922Z,16.20
2022-10-18T16:35:55.013Z,16.00
2022-10-18T16:38:31.071Z,16.40
2022-10-18T16:41:05.130Z,16.45
2022-10-18T16:43:34.909Z,17.58
2022-10-18T16:46:04.363Z,16.80
2022-10-18T16:48:32.404Z,16.92
2022-10-18T16:50:59.523Z,17.33
2022-10-18T16:53:26.955Z,17.38
2022-10-18T16:56:00.789Z,18.52
2022-10-18T16:58:29.970Z,18.35
2022-10-18T17:00:58.116Z,18.75
2022-10-18T17:03:26.180Z,19.05
2022-10-18T17:05:53.738Z,19.10
2022-10-18T17:08:24.154Z,19.20
2022-10-18T17:10:53.967Z,19.10
2022-10-18T17:13:21.788Z,19.02
2022-10-18T17:15:49.576Z,18.63
2022-10-18T17:18:20.388Z,18.20
2022-10-18T17:20:47.589Z,19.63
2022-10-18T17:23:15.675Z,17.73
2022-10-18T17:25:59.089Z,17.77
2022-10-18T17:28:34.217Z,17.15
2022-10-18T17:31:01.216Z,16.77
2022-10-18T17:33:28.388Z,17.40
2022-10-18T17:35:55.550Z,16.60
2022-10-18T17:38:22.577Z,17.35
2022-10-18T17:40:52.591Z,17.70
2022-10-18T17:43:19.704Z,17.70
2022-10-18T17:45:48.680Z,17.13
2022-10-18T17:48:17.672Z,16.08
2022-10-18T17:50:45.552Z,15.00
2022-10-18T17:53:13.347Z,14.98
2022-10-18T17:55:40.816Z,14.27
2022-10-18T17:58:08.266Z,14.45
2022-10-18T18:00:35.371Z,13.60
2022-10-18T18:03:03.407Z,14.10
2022-10-18T18:05:33.009Z,14.02
2022-10-18T18:08:03.857Z,13.63
2022-10-18T18:10:34.600Z,14.27
2022-10-18T18:13:02.841Z,14.27
2022-10-18T18:15:30.086Z,14.70
2022-10-18T18:17:58.037Z,14.60
2022-10-18T18:20:26.097Z,14.40
2022-10-18T18:22:53.502Z,15.02
2022-10-18T18:25:20.677Z,16.33
2022-10-18T18:27:50.265Z,17.67
2022-10-18T18:30:18.078Z,18.52
2022-10-18T18:32:45.306Z,18.67
2022-10-18T18:35:12.297Z,18.50
2022-10-18T18:37:39.220Z,19.13
2022-10-18T18:40:06.943Z,19.60
2022-10-18T18:42:34.273Z,19.73
2022-10-18T18:45:01.731Z,19.13
2022-10-18T18:47:28.768Z,19.42
2022-10-18T18:49:55.828Z,19.63
2022-10-18T18:52:22.993Z,17.55
2022-10-18T18:54:50.291Z,18.42
2022-10-18T18:57:17.589Z,16.02
2022-10-18T18:59:44.702Z,15.40
2022-10-18T19:02:12.306Z,15.90
2022-10-18T19:04:41.379Z,15.25
2022-10-18T19:07:14.611Z,14.90
2022-10-18T19:09:44.887Z,14.82
2022-10-18T19:12:11.925Z,14.55
2022-10-18T19:14:39.663Z,14.00
2022-10-18T19:17:08.076Z,14.25
2022-10-18T19:19:41.035Z,12.55
2022-10-18T19:22:11.190Z,13.43
2022-10-18T19:24:44.705Z,13.23
2022-10-18T19:27:12.716Z,13.80
2022-10-18T19:29:40.951Z,13.02
2022-10-18T19:32:12.341Z,13.15
2022-10-18T19:34:40.749Z,14.02
2022-10-18T19:37:09.523Z,13.50
2022-10-18T19:39:36.453Z,13.40
2022-10-18T19:42:06.519Z,13.95
2022-10-18T19:44:35.991Z,13.77
2022-10-18T19:47:04.779Z,14.30
2022-10-18T19:49:32.280Z,14.10
2022-10-18T19:51:59.717Z,14.55
2022-10-18T19:54:27.359Z,14.48
2022-10-18T19:56:54.689Z,14.80
2022-10-18T19:59:22.925Z,14.80
2022-10-18T20:01:53.390Z,14.52
2022-10-18T20:04:20.892Z,14.48
2022-10-18T20:06:48.057Z,15.07
2022-10-18T20:09:19.699Z,14.77
2022-10-18T20:11:48.078Z,15.20
2022-10-18T20:14:15.904Z,15.10
2022-10-18T20:16:43.160Z,15.73
2022-10-18T20:19:12.307Z,16.35
2022-10-18T20:21:40.034Z,16.15
2022-10-18T20:24:10.211Z,15.63
2022-10-18T20:26:38.075Z,17.08
2022-10-18T20:29:05.739Z,16.80
2022-10-18T20:31:36.299Z,17.90
2022-10-18T20:34:06.609Z,17.58
2022-10-18T20:36:35.068Z,18.05
2022-10-18T20:39:03.103Z,18.23
2022-10-18T20:41:33.758Z,18.08
2022-10-18T20:44:03.011Z,20.13
2022-10-18T20:46:31.773Z,20.25
2022-10-18T20:48:59.333Z,21.63
2022-10-18T20:51:26.618Z,9.52
2022-10-18T20:53:54.216Z,5.13
2022-10-18T20:56:24.191Z,4.30
2022-10-18T20:58:53.551Z,2.90
2022-10-18T21:01:23.471Z,3.08
2022-10-18T21:03:52.484Z,2.75
2022-10-18T21:06:31.047Z,1.95
2022-10-18T21:09:03.887Z,1.70
2022-10-18T21:11:34.318Z,1.80
2022-10-18T21:14:05.485Z,1.73
2022-10-18T21:16:35.244Z,1.33
2022-10-18T21:19:07.349Z,1.20
2022-10-18T21:21:34.796Z,1.20
2022-10-18T21:24:05.368Z,1.00
2022-10-18T21:26:35.680Z,1.40
2022-10-18T21:29:03.803Z,1.15
2022-10-18T21:31:33.931Z,0.88
2022-10-18T21:34:03.442Z,0.93
2022-10-18T21:36:31.746Z,1.00
2022-10-18T21:38:59.084Z,1.17
2022-10-18T21:41:26.219Z,1.13
2022-10-18T21:43:55.104Z,1.00
2022-10-18T21:46:26.239Z,0.95
2022-10-18T21:48:55.986Z,1.00
2022-10-18T21:51:27.098Z,1.10
2022-10-18T21:53:57.020Z,1.00
2022-10-18T21:56:29.980Z,1.10
2022-10-18T21:58:57.597Z,1.20
2022-10-18T22:01:32.594Z,1.30
2022-10-18T22:04:01.528Z,1.50
2022-10-18T22:06:32.808Z,1.35
2022-10-18T22:09:03.919Z,1.38
2022-10-18T22:11:52.661Z,1.60
2022-10-18T22:14:20.224Z,1.50
2022-10-18T22:16:47.204Z,1.85
2022-10-18T22:19:14.400Z,1.20
2022-10-18T22:21:41.297Z,1.40
2022-10-18T22:24:09.309Z,2.08
2022-10-18T22:26:38.953Z,1.70
2022-10-18T22:29:17.290Z,1.98
2022-10-18T22:31:53.236Z,1.52
2022-10-18T22:34:23.825Z,1.80
2022-10-18T22:36:51.170Z,2.20
2022-10-18T22:39:18.303Z,2.20
2022-10-18T22:41:46.636Z,1.73
2022-10-18T22:44:14.744Z,1.63
2022-10-18T22:46:42.570Z,1.70
2022-10-18T22:49:09.665Z,1.80
2022-10-18T22:51:36.621Z,2.13
2022-10-18T22:54:04.236Z,1.83
2022-10-18T22:56:31.594Z,1.98
2022-10-18T22:58:58.757Z,1.70
2022-10-18T23:01:25.835Z,1.83
2022-10-18T23:03:57.499Z,2.00
2022-10-18T23:06:33.104Z,2.00
2022-10-18T23:09:01.781Z,2.33
2022-10-18T23:11:30.267Z,2.40
2022-10-18T23:13:58.487Z,2.00
2022-10-18T23:16:25.592Z,2.38
2022-10-18T23:18:55.036Z,2.50
2022-10-18T23:21:24.373Z,2.83
2022-10-18T23:23:52.941Z,2.60
2022-10-18T23:26:22.829Z,2.20
2022-10-18T23:28:51.637Z,2.47
2022-10-18T23:31:24.282Z,3.00
2022-10-18T23:33:53.528Z,3.20
2022-10-18T23:36:21.710Z,3.08
2022-10-18T23:38:49.205Z,3.60
2022-10-18T23:41:17.242Z,3.63
2022-10-18T23:43:45.099Z,3.30
2022-10-18T23:46:13.677Z,3.53
2022-10-18T23:48:40.575Z,3.50
2022-10-18T23:51:08.230Z,3.60
2022-10-18T23:53:35.837Z,4.07
2022-10-18T23:56:06.667Z,4.50
2022-10-18T23:58:35.310Z,4.45
